sensor_id;sensor_type;location;lat;lon;timestamp;P1;durP1;ratioP1;P2;durP2;ratioP2
6209;SDS011;3138;52.550;13.148;2023-07-31T00:01:56;9.80;;;3.27;;
6209;SDS011;3138;52.550;13.148;2023-07-31T00:04:23;3.70;;;2.33;;
6209;SDS011;3138;52.550;13.148;2023-07-31T00:06:50;5.90;;;2.50;;
6209;SDS011;3138;52.550;13.148;2023-07-31T00:09:18;4.20;;;2.60;;
6209;SDS011;3138;52.550;13.148;2023-07-31T00:11:45;4.07;;;2.10;;
6209;SDS011;3138;52.550;13.148;2023-07-31T00:14:12;11.93;;;2.30;;
6209;SDS011;3138;52.550;13.148;2023-07-31T00:16:38;10.20;;;2.13;;
6209;SDS011;3138;52.550;13.148;2023-07-31T00:19:05;20.30;;;2.63;;
6209;SDS011;3138;52.550;13.148;2023-07-31T00:21:32;4.80;;;2.60;;
6209;SDS011;3138;52.550;13.148;2023-07-31T00:23:59;5.80;;;3.03;;
6209;SDS011;3138;52.550;13.148;2023-07-31T00:26:27;12.40;;;2.43;;
6209;SDS011;3138;52.550;13.148;2023-07-31T00:28:54;2.80;;;2.03;;
6209;SDS011;3138;52.550;13.148;2023-07-31T00:31:20;7.00;;;2.63;;
6209;SDS011;3138;52.550;13.148;2023-07-31T00:33:48;6.73;;;2.00;;
6209;SDS011;3138;52.550;13.148;2023-07-31T00:36:15;4.03;;;1.97;;
6209;SDS011;3138;52.550;13.148;2023-07-31T00:38:43;5.30;;;2.60;;
6209;SDS011;3138;52.550;13.148;2023-07-31T00:41:09;14.20;;;2.43;;
6209;SDS011;3138;52.550;13.148;2023-07-31T00:43:38;4.70;;;2.13;;
6209;SDS011;3138;52.550;13.148;2023-07-31T00:46:04;5.50;;;2.37;;
6209;SDS011;3138;52.550;13.148;2023-07-31T00:48:31;7.93;;;2.53;;
6209;SDS011;3138;52.550;13.148;2023-07-31T00:50:59;9.40;;;2.90;;
6209;SDS011;3138;52.550;13.148;2023-07-31T00:53:27;7.67;;;2.73;;
6209;SDS011;3138;52.550;13.148;2023-07-31T00:55:54;7.03;;;2.70;;
6209;SDS011;3138;52.550;13.148;2023-07-31T00:58:21;9.53;;;2.27;;
6209;SDS011;3138;52.550;13.148;2023-07-31T01:00:49;13.57;;;2.87;;
6209;SDS011;3138;52.550;13.148;2023-07-31T01:03:16;8.30;;;3.20;;
6209;SDS011;3138;52.550;13.148;2023-07-31T01:05:45;4.00;;;2.00;;
6209;SDS011;3138;52.550;13.148;2023-07-31T01:08:18;8.97;;;3.20;;
6209;SDS011;3138;52.550;13.148;2023-07-31T01:10:55;6.23;;;3.17;;
6209;SDS011;3138;52.550;13.148;2023-07-31T01:13:26;10.43;;;2.80;;
6209;SDS011;3138;52.550;13.148;2023-07-31T01:15:57;6.87;;;2.80;;
6209;SDS011;3138;52.550;13.148;2023-07-31T01:18:24;9.10;;;3.50;;
6209;SDS011;3138;52.550;13.148;2023-07-31T01:20:53;7.30;;;2.97;;
6209;SDS011;3138;52.550;13.148;2023-07-31T01:23:42;4.43;;;3.07;;
6209;SDS011;3138;52.550;13.148;2023-07-31T01:26:34;7.20;;;3.10;;
6209;SDS011;3138;52.550;13.148;2023-07-31T01:29:03;8.67;;;3.00;;
6209;SDS011;3138;52.550;13.148;2023-07-31T01:31:36;9.63;;;3.60;;
6209;SDS011;3138;52.550;13.148;2023-07-31T01:34:05;8.70;;;3.20;;
6209;SDS011;3138;52.550;13.148;2023-07-31T01:36:35;6.80;;;3.57;;
6209;SDS011;3138;52.550;13.148;2023-07-31T01:39:02;4.63;;;2.63;;
6209;SDS011;3138;52.550;13.148;2023-07-31T01:41:29;9.77;;;3.53;;
6209;SDS011;3138;52.550;13.148;2023-07-31T01:43:57;15.07;;;3.20;;
6209;SDS011;3138;52.550;13.148;2023-07-31T01:46:24;8.13;;;3.33;;
6209;SDS011;3138;52.550;13.148;2023-07-31T01:48:51;8.90;;;3.27;;
6209;SDS011;3138;52.550;13.148;2023-07-31T01:51:18;8.00;;;2.87;;
6209;SDS011;3138;52.550;13.148;2023-07-31T01:53:44;5.57;;;2.83;;
6209;SDS011;3138;52.550;13.148;2023-07-31T01:56:11;4.80;;;3.10;;
6209;SDS011;3138;52.550;13.148;2023-07-31T01:58:38;5.30;;;2.43;;
6209;SDS011;3138;52.550;13.148;2023-07-31T02:01:06;8.20;;;3.00;;
6209;SDS011;3138;52.550;13.148;2023-07-31T02:03:33;6.33;;;3.00;;
6209;SDS011;3138;52.550;13.148;2023-07-31T02:06:00;5.80;;;2.20;;
6209;SDS011;3138;52.550;13.148;2023-07-31T02:08:27;13.80;;;3.80;;
6209;SDS011;3138;52.550;13.148;2023-07-31T02:10:53;4.67;;;2.77;;
6209;SDS011;3138;52.550;13.148;2023-07-31T02:13:20;4.90;;;2.70;;
6209;SDS011;3138;52.550;13.148;2023-07-31T02:15:47;4.80;;;2.83;;
6209;SDS011;3138;52.550;13.148;2023-07-31T02:18:16;10.83;;;3.63;;
6209;SDS011;3138;52.550;13.148;2023-07-31T02:20:43;8.17;;;3.70;;
6209;SDS011;3138;52.550;13.148;2023-07-31T02:23:16;6.40;;;3.60;;
6209;SDS011;3138;52.550;13.148;2023-07-31T02:25:42;5.33;;;3.50;;
6209;SDS011;3138;52.550;13.148;2023-07-31T02:28:09;5.30;;;3.40;;
6209;SDS011;3138;52.550;13.148;2023-07-31T02:30:36;3.23;;;3.03;;
6209;SDS011;3138;52.550;13.148;2023-07-31T02:33:03;8.13;;;3.30;;
6209;SDS011;3138;52.550;13.148;2023-07-31T02:35:32;15.63;;;3.77;;
6209;SDS011;3138;52.550;13.148;2023-07-31T02:37:59;8.30;;;3.37;;
6209;SDS011;3138;52.550;13.148;2023-07-31T02:40:26;21.63;;;4.73;;
6209;SDS011;3138;52.550;13.148;2023-07-31T02:42:52;22.53;;;3.97;;
6209;SDS011;3138;52.550;13.148;2023-07-31T02:45:19;8.93;;;3.97;;
6209;SDS011;3138;52.550;13.148;2023-07-31T02:47:46;14.73;;;4.33;;
6209;SDS011;3138;52.550;13.148;2023-07-31T02:50:13;15.43;;;4.57;;
6209;SDS011;3138;52.550;13.148;2023-07-31T02:52:41;18.70;;;3.43;;
6209;SDS011;3138;52.550;13.148;2023-07-31T02:55:08;15.30;;;3.60;;
6209;SDS011;3138;52.550;13.148;2023-07-31T02:57:35;5.00;;;3.27;;
6209;SDS011;3138;52.550;13.148;2023-07-31T03:00:01;8.27;;;4.13;;
6209;SDS011;3138;52.550;13.148;2023-07-31T03:02:31;9.43;;;3.47;;
6209;SDS011;3138;52.550;13.148;2023-07-31T03:04:57;11.43;;;4.37;;
6209;SDS011;3138;52.550;13.148;2023-07-31T03:07:24;10.27;;;4.00;;
6209;SDS011;3138;52.550;13.148;2023-07-31T03:09:52;9.80;;;4.10;;
6209;SDS011;3138;52.550;13.148;2023-07-31T03:12:19;12.70;;;3.70;;
6209;SDS011;3138;52.550;13.148;2023-07-31T03:14:46;9.43;;;4.30;;
6209;SDS011;3138;52.550;13.148;2023-07-31T03:17:13;5.73;;;3.90;;
6209;SDS011;3138;52.550;13.148;2023-07-31T03:19:40;10.00;;;4.23;;
6209;SDS011;3138;52.550;13.148;2023-07-31T03:22:07;14.13;;;3.93;;
6209;SDS011;3138;52.550;13.148;2023-07-31T03:24:33;8.47;;;5.43;;
6209;SDS011;3138;52.550;13.148;2023-07-31T03:27:02;8.33;;;4.60;;
6209;SDS011;3138;52.550;13.148;2023-07-31T03:29:29;9.43;;;4.93;;
6209;SDS011;3138;52.550;13.148;2023-07-31T03:31:56;10.20;;;3.90;;
6209;SDS011;3138;52.550;13.148;2023-07-31T03:34:22;11.73;;;5.00;;
6209;SDS011;3138;52.550;13.148;2023-07-31T03:36:49;13.43;;;4.57;;
6209;SDS011;3138;52.550;13.148;2023-07-31T03:39:16;10.90;;;4.27;;
6209;SDS011;3138;52.550;13.148;2023-07-31T03:41:43;9.93;;;4.53;;
6209;SDS011;3138;52.550;13.148;2023-07-31T03:44:11;9.20;;;4.37;;
6209;SDS011;3138;52.550;13.148;2023-07-31T03:46:38;5.70;;;4.50;;
6209;SDS011;3138;52.550;13.148;2023-07-31T03:49:05;13.80;;;4.30;;
6209;SDS011;3138;52.550;13.148;2023-07-31T03:51:31;6.63;;;4.50;;
6209;SDS011;3138;52.550;13.148;2023-07-31T03:53:58;7.30;;;4.63;;
6209;SDS011;3138;52.550;13.148;2023-07-31T03:56:25;7.53;;;4.23;;
6209;SDS011;3138;52.550;13.148;2023-07-31T03:58:52;11.80;;;5.33;;
6209;SDS011;3138;52.550;13.148;2023-07-31T04:01:20;14.50;;;5.33;;
6209;SDS011;3138;52.550;13.148;2023-07-31T04:03:47;10.10;;;4.73;;
6209;SDS011;3138;52.550;13.148;2023-07-31T04:06:14;10.10;;;4.67;;
6209;SDS011;3138;52.550;13.148;2023-07-31T04:08:43;10.53;;;5.10;;
6209;SDS011;3138;52.550;13.148;2023-07-31T04:11:10;9.53;;;5.20;;
6209;SDS011;3138;52.550;13.148;2023-07-31T04:13:37;13.57;;;4.50;;
6209;SDS011;3138;52.550;13.148;2023-07-31T04:16:04;10.40;;;5.40;;
6209;SDS011;3138;52.550;13.148;2023-07-31T04:18:32;22.53;;;4.93;;
6209;SDS011;3138;52.550;13.148;2023-07-31T04:20:59;20.77;;;5.00;;
6209;SDS011;3138;52.550;13.148;2023-07-31T04:23:26;14.10;;;4.87;;
6209;SDS011;3138;52.550;13.148;2023-07-31T04:25:53;17.10;;;5.20;;
6209;SDS011;3138;52.550;13.148;2023-07-31T04:28:20;22.90;;;5.83;;
6209;SDS011;3138;52.550;13.148;2023-07-31T04:30:46;5.53;;;4.27;;
6209;SDS011;3138;52.550;13.148;2023-07-31T04:33:13;14.03;;;4.83;;
6209;SDS011;3138;52.550;13.148;2023-07-31T04:35:42;9.93;;;5.17;;
6209;SDS011;3138;52.550;13.148;2023-07-31T04:38:17;8.00;;;4.53;;
6209;SDS011;3138;52.550;13.148;2023-07-31T04:40:44;10.80;;;5.10;;
6209;SDS011;3138;52.550;13.148;2023-07-31T04:43:11;13.37;;;5.40;;
6209;SDS011;3138;52.550;13.148;2023-07-31T04:45:38;11.17;;;5.00;;
6209;SDS011;3138;52.550;13.148;2023-07-31T04:48:05;11.50;;;5.80;;
6209;SDS011;3138;52.550;13.148;2023-07-31T04:50:31;9.80;;;4.80;;
6209;SDS011;3138;52.550;13.148;2023-07-31T04:53:00;11.30;;;5.30;;
6209;SDS011;3138;52.550;13.148;2023-07-31T04:55:26;6.37;;;4.50;;
6209;SDS011;3138;52.550;13.148;2023-07-31T04:57:53;10.73;;;4.83;;
6209;SDS011;3138;52.550;13.148;2023-07-31T05:00:20;27.17;;;5.67;;
6209;SDS011;3138;52.550;13.148;2023-07-31T05:02:47;9.13;;;5.53;;
6209;SDS011;3138;52.550;13.148;2023-07-31T05:05:14;6.30;;;4.47;;
6209;SDS011;3138;52.550;13.148;2023-07-31T05:07:41;17.30;;;5.13;;
6209;SDS011;3138;52.550;13.148;2023-07-31T05:10:09;20.83;;;4.97;;
6209;SDS011;3138;52.550;13.148;2023-07-31T05:12:36;10.90;;;5.00;;
6209;SDS011;3138;52.550;13.148;2023-07-31T05:15:03;12.10;;;4.53;;
6209;SDS011;3138;52.550;13.148;2023-07-31T05:17:32;9.40;;;4.77;;
6209;SDS011;3138;52.550;13.148;2023-07-31T05:19:59;10.90;;;4.87;;
6209;SDS011;3138;52.550;13.148;2023-07-31T05:22:26;13.40;;;4.30;;
6209;SDS011;3138;52.550;13.148;2023-07-31T05:24:53;9.63;;;5.40;;
6209;SDS011;3138;52.550;13.148;2023-07-31T05:27:21;10.97;;;4.63;;
6209;SDS011;3138;52.550;13.148;2023-07-31T05:29:48;7.93;;;4.30;;
6209;SDS011;3138;52.550;13.148;2023-07-31T05:32:15;15.30;;;4.67;;
6209;SDS011;3138;52.550;13.148;2023-07-31T05:34:41;9.17;;;5.67;;
6209;SDS011;3138;52.550;13.148;2023-07-31T05:37:09;8.00;;;4.93;;
6209;SDS011;3138;52.550;13.148;2023-07-31T05:39:36;19.90;;;4.37;;
6209;SDS011;3138;52.550;13.148;2023-07-31T05:42:03;9.37;;;4.23;;
6209;SDS011;3138;52.550;13.148;2023-07-31T05:44:32;11.77;;;5.10;;
6209;SDS011;3138;52.550;13.148;2023-07-31T05:46:59;10.03;;;4.00;;
6209;SDS011;3138;52.550;13.148;2023-07-31T05:49:26;9.87;;;4.23;;
6209;SDS011;3138;52.550;13.148;2023-07-31T05:51:52;7.97;;;3.63;;
6209;SDS011;3138;52.550;13.148;2023-07-31T05:54:19;5.40;;;3.20;;
6209;SDS011;3138;52.550;13.148;2023-07-31T05:56:46;15.93;;;5.07;;
6209;SDS011;3138;52.550;13.148;2023-07-31T05:59:13;9.90;;;6.80;;
6209;SDS011;3138;52.550;13.148;2023-07-31T06:01:41;9.00;;;4.10;;
6209;SDS011;3138;52.550;13.148;2023-07-31T06:04:08;14.70;;;3.90;;
6209;SDS011;3138;52.550;13.148;2023-07-31T06:06:35;10.33;;;3.80;;
6209;SDS011;3138;52.550;13.148;2023-07-31T06:09:02;8.70;;;3.67;;
6209;SDS011;3138;52.550;13.148;2023-07-31T06:11:29;15.00;;;4.10;;
6209;SDS011;3138;52.550;13.148;2023-07-31T06:13:57;11.93;;;3.43;;
6209;SDS011;3138;52.550;13.148;2023-07-31T06:16:24;5.50;;;3.23;;
6209;SDS011;3138;52.550;13.148;2023-07-31T06:18:53;14.60;;;5.00;;
6209;SDS011;3138;52.550;13.148;2023-07-31T06:21:20;8.13;;;4.20;;
6209;SDS011;3138;52.550;13.148;2023-07-31T06:23:47;6.83;;;3.90;;
6209;SDS011;3138;52.550;13.148;2023-07-31T06:26:14;5.10;;;3.27;;
6209;SDS011;3138;52.550;13.148;2023-07-31T06:28:41;6.83;;;3.40;;
6209;SDS011;3138;52.550;13.148;2023-07-31T06:31:08;9.93;;;3.50;;
6209;SDS011;3138;52.550;13.148;2023-07-31T06:33:34;4.93;;;3.40;;
6209;SDS011;3138;52.550;13.148;2023-07-31T06:36:03;10.33;;;3.13;;
6209;SDS011;3138;52.550;13.148;2023-07-31T06:38:30;14.07;;;3.40;;
6209;SDS011;3138;52.550;13.148;2023-07-31T06:40:57;10.53;;;2.93;;
6209;SDS011;3138;52.550;13.148;2023-07-31T06:43:23;10.43;;;3.47;;
6209;SDS011;3138;52.550;13.148;2023-07-31T06:45:50;6.67;;;2.80;;
6209;SDS011;3138;52.550;13.148;2023-07-31T06:48:17;6.43;;;3.60;;
6209;SDS011;3138;52.550;13.148;2023-07-31T06:50:44;10.27;;;3.40;;
6209;SDS011;3138;52.550;13.148;2023-07-31T06:53:12;6.63;;;3.00;;
6209;SDS011;3138;52.550;13.148;2023-07-31T06:55:39;5.30;;;2.80;;
6209;SDS011;3138;52.550;13.148;2023-07-31T06:58:06;21.50;;;2.90;;
6209;SDS011;3138;52.550;13.148;2023-07-31T07:00:33;8.03;;;2.67;;
6209;SDS011;3138;52.550;13.148;2023-07-31T07:02:59;8.73;;;2.80;;
6209;SDS011;3138;52.550;13.148;2023-07-31T07:05:26;6.70;;;2.87;;
6209;SDS011;3138;52.550;13.148;2023-07-31T07:07:53;7.30;;;3.23;;
6209;SDS011;3138;52.550;13.148;2023-07-31T07:10:24;7.83;;;3.23;;
6209;SDS011;3138;52.550;13.148;2023-07-31T07:12:51;7.33;;;3.10;;
6209;SDS011;3138;52.550;13.148;2023-07-31T07:15:20;9.00;;;3.60;;
6209;SDS011;3138;52.550;13.148;2023-07-31T07:17:47;5.40;;;3.80;;
6209;SDS011;3138;52.550;13.148;2023-07-31T07:20:14;5.20;;;3.23;;
6209;SDS011;3138;52.550;13.148;2023-07-31T07:22:41;12.07;;;3.70;;
6209;SDS011;3138;52.550;13.148;2023-07-31T07:25:08;18.87;;;3.77;;
6209;SDS011;3138;52.550;13.148;2023-07-31T07:27:37;10.20;;;3.40;;
6209;SDS011;3138;52.550;13.148;2023-07-31T07:30:04;5.30;;;2.90;;
6209;SDS011;3138;52.550;13.148;2023-07-31T07:32:31;7.87;;;3.00;;
6209;SDS011;3138;52.550;13.148;2023-07-31T07:34:58;5.50;;;2.63;;
6209;SDS011;3138;52.550;13.148;2023-07-31T07:37:25;6.63;;;3.47;;
6209;SDS011;3138;52.550;13.148;2023-07-31T07:39:52;4.57;;;2.70;;
6209;SDS011;3138;52.550;13.148;2023-07-31T07:42:19;2.90;;;2.70;;
6209;SDS011;3138;52.550;13.148;2023-07-31T07:44:47;8.47;;;3.50;;
6209;SDS011;3138;52.550;13.148;2023-07-31T07:47:14;8.07;;;3.37;;
6209;SDS011;3138;52.550;13.148;2023-07-31T07:49:41;3.77;;;2.37;;
6209;SDS011;3138;52.550;13.148;2023-07-31T07:52:08;8.83;;;3.60;;
6209;SDS011;3138;52.550;13.148;2023-07-31T07:54:39;5.77;;;3.17;;
6209;SDS011;3138;52.550;13.148;2023-07-31T07:57:06;4.10;;;3.17;;
6209;SDS011;3138;52.550;13.148;2023-07-31T07:59:34;10.67;;;3.60;;
6209;SDS011;3138;52.550;13.148;2023-07-31T08:02:08;8.07;;;2.93;;
6209;SDS011;3138;52.550;13.148;2023-07-31T08:04:35;6.63;;;3.00;;
6209;SDS011;3138;52.550;13.148;2023-07-31T08:07:02;10.87;;;3.67;;
6209;SDS011;3138;52.550;13.148;2023-07-31T08:09:31;9.40;;;2.80;;
6209;SDS011;3138;52.550;13.148;2023-07-31T08:11:58;10.73;;;3.10;;
6209;SDS011;3138;52.550;13.148;2023-07-31T08:14:27;3.40;;;2.33;;
6209;SDS011;3138;52.550;13.148;2023-07-31T08:16:55;5.47;;;2.97;;
6209;SDS011;3138;52.550;13.148;2023-07-31T08:19:23;3.90;;;3.00;;
6209;SDS011;3138;52.550;13.148;2023-07-31T08:21:50;3.80;;;3.10;;
6209;SDS011;3138;52.550;13.148;2023-07-31T08:24:17;7.73;;;2.03;;
6209;SDS011;3138;52.550;13.148;2023-07-31T08:26:43;4.07;;;2.50;;
6209;SDS011;3138;52.550;13.148;2023-07-31T08:29:10;9.97;;;2.50;;
6209;SDS011;3138;52.550;13.148;2023-07-31T08:31:37;3.67;;;3.00;;
6209;SDS011;3138;52.550;13.148;2023-07-31T08:34:04;8.23;;;3.03;;
6209;SDS011;3138;52.550;13.148;2023-07-31T08:36:32;3.00;;;2.77;;
6209;SDS011;3138;52.550;13.148;2023-07-31T08:38:59;4.27;;;2.50;;
6209;SDS011;3138;52.550;13.148;2023-07-31T08:41:26;3.40;;;2.27;;
6209;SDS011;3138;52.550;13.148;2023-07-31T08:43:53;5.60;;;2.70;;
6209;SDS011;3138;52.550;13.148;2023-07-31T08:46:22;9.77;;;3.77;;
6209;SDS011;3138;52.550;13.148;2023-07-31T08:48:50;6.23;;;2.60;;
6209;SDS011;3138;52.550;13.148;2023-07-31T08:51:18;2.47;;;2.00;;
6209;SDS011;3138;52.550;13.148;2023-07-31T08:53:47;5.20;;;2.70;;
6209;SDS011;3138;52.550;13.148;2023-07-31T08:56:14;6.03;;;2.50;;
6209;SDS011;3138;52.550;13.148;2023-07-31T08:58:42;1.87;;;1.77;;
6209;SDS011;3138;52.550;13.148;2023-07-31T09:01:10;2.23;;;2.10;;
6209;SDS011;3138;52.550;13.148;2023-07-31T09:03:37;1.70;;;1.60;;
6209;SDS011;3138;52.550;13.148;2023-07-31T09:06:06;6.90;;;2.80;;
6209;SDS011;3138;52.550;13.148;2023-07-31T09:08:33;2.43;;;1.70;;
6209;SDS011;3138;52.550;13.148;2023-07-31T09:11:02;5.10;;;1.80;;
6209;SDS011;3138;52.550;13.148;2023-07-31T09:13:30;1.57;;;1.47;;
6209;SDS011;3138;52.550;13.148;2023-07-31T09:15:57;1.47;;;1.37;;
6209;SDS011;3138;52.550;13.148;2023-07-31T09:18:24;2.33;;;2.23;;
6209;SDS011;3138;52.550;13.148;2023-07-31T09:21:01;3.47;;;1.90;;
6209;SDS011;3138;52.550;13.148;2023-07-31T09:23:39;7.50;;;2.33;;
6209;SDS011;3138;52.550;13.148;2023-07-31T09:26:11;2.57;;;1.47;;
6209;SDS011;3138;52.550;13.148;2023-07-31T09:28:55;4.57;;;1.70;;
6209;SDS011;3138;52.550;13.148;2023-07-31T09:31:31;2.00;;;1.90;;
6209;SDS011;3138;52.550;13.148;2023-07-31T09:33:58;2.00;;;1.70;;
6209;SDS011;3138;52.550;13.148;2023-07-31T09:36:28;1.37;;;1.33;;
6209;SDS011;3138;52.550;13.148;2023-07-31T09:38:56;3.43;;;1.60;;
6209;SDS011;3138;52.550;13.148;2023-07-31T09:41:28;2.10;;;1.80;;
6209;SDS011;3138;52.550;13.148;2023-07-31T09:43:55;1.40;;;1.40;;
6209;SDS011;3138;52.550;13.148;2023-07-31T09:46:22;7.93;;;2.33;;
6209;SDS011;3138;52.550;13.148;2023-07-31T09:48:53;2.33;;;2.20;;
6209;SDS011;3138;52.550;13.148;2023-07-31T09:51:31;2.63;;;1.77;;
6209;SDS011;3138;52.550;13.148;2023-07-31T09:54:03;1.40;;;1.30;;
6209;SDS011;3138;52.550;13.148;2023-07-31T09:56:32;2.20;;;1.27;;
6209;SDS011;3138;52.550;13.148;2023-07-31T09:59:00;4.40;;;1.00;;
6209;SDS011;3138;52.550;13.148;2023-07-31T10:01:30;1.37;;;1.30;;
6209;SDS011;3138;52.550;13.148;2023-07-31T10:03:57;1.87;;;1.63;;
6209;SDS011;3138;52.550;13.148;2023-07-31T10:06:26;9.50;;;2.10;;
6209;SDS011;3138;52.550;13.148;2023-07-31T10:08:53;5.80;;;2.27;;
6209;SDS011;3138;52.550;13.148;2023-07-31T10:11:21;2.17;;;1.97;;
6209;SDS011;3138;52.550;13.148;2023-07-31T10:13:52;3.53;;;2.30;;
6209;SDS011;3138;52.550;13.148;2023-07-31T10:16:20;3.00;;;2.50;;
6209;SDS011;3138;52.550;13.148;2023-07-31T10:18:47;3.93;;;2.63;;
6209;SDS011;3138;52.550;13.148;2023-07-31T10:21:15;5.93;;;3.07;;
6209;SDS011;3138;52.550;13.148;2023-07-31T10:23:42;3.77;;;3.40;;
6209;SDS011;3138;52.550;13.148;2023-07-31T10:26:10;11.13;;;3.60;;
6209;SDS011;3138;52.550;13.148;2023-07-31T10:28:39;7.90;;;4.07;;
6209;SDS011;3138;52.550;13.148;2023-07-31T10:31:08;10.30;;;4.30;;
6209;SDS011;3138;52.550;13.148;2023-07-31T10:33:35;11.53;;;5.17;;
6209;SDS011;3138;52.550;13.148;2023-07-31T10:36:12;9.63;;;4.20;;
6209;SDS011;3138;52.550;13.148;2023-07-31T10:38:39;3.47;;;3.17;;
6209;SDS011;3138;52.550;13.148;2023-07-31T10:41:09;6.67;;;5.10;;
6209;SDS011;3138;52.550;13.148;2023-07-31T10:43:36;5.77;;;4.70;;
6209;SDS011;3138;52.550;13.148;2023-07-31T10:46:07;7.17;;;5.00;;
6209;SDS011;3138;52.550;13.148;2023-07-31T10:48:35;8.10;;;5.30;;
6209;SDS011;3138;52.550;13.148;2023-07-31T10:51:06;13.83;;;5.80;;
6209;SDS011;3138;52.550;13.148;2023-07-31T10:53:34;9.93;;;5.60;;
6209;SDS011;3138;52.550;13.148;2023-07-31T10:56:01;11.60;;;4.83;;
6209;SDS011;3138;52.550;13.148;2023-07-31T10:58:28;17.70;;;5.63;;
6209;SDS011;3138;52.550;13.148;2023-07-31T11:00:57;13.40;;;5.20;;
6209;SDS011;3138;52.550;13.148;2023-07-31T11:03:29;10.50;;;4.70;;
6209;SDS011;3138;52.550;13.148;2023-07-31T11:06:07;21.20;;;4.70;;
6209;SDS011;3138;52.550;13.148;2023-07-31T11:08:35;9.87;;;4.20;;
6209;SDS011;3138;52.550;13.148;2023-07-31T11:11:08;7.17;;;3.73;;
6209;SDS011;3138;52.550;13.148;2023-07-31T11:13:45;9.67;;;4.93;;
6209;SDS011;3138;52.550;13.148;2023-07-31T11:16:14;18.50;;;5.57;;
6209;SDS011;3138;52.550;13.148;2023-07-31T11:18:43;7.20;;;4.67;;
6209;SDS011;3138;52.550;13.148;2023-07-31T11:21:12;14.00;;;4.47;;
6209;SDS011;3138;52.550;13.148;2023-07-31T11:23:39;10.03;;;4.53;;
6209;SDS011;3138;52.550;13.148;2023-07-31T11:26:06;9.17;;;4.50;;
6209;SDS011;3138;52.550;13.148;2023-07-31T11:28:34;9.50;;;5.43;;
6209;SDS011;3138;52.550;13.148;2023-07-31T11:31:01;4.70;;;3.87;;
6209;SDS011;3138;52.550;13.148;2023-07-31T11:33:29;12.20;;;4.63;;
6209;SDS011;3138;52.550;13.148;2023-07-31T11:35:57;9.87;;;4.33;;
6209;SDS011;3138;52.550;13.148;2023-07-31T11:38:25;8.00;;;4.60;;
6209;SDS011;3138;52.550;13.148;2023-07-31T11:40:53;7.53;;;5.10;;
6209;SDS011;3138;52.550;13.148;2023-07-31T11:43:20;13.30;;;4.00;;
6209;SDS011;3138;52.550;13.148;2023-07-31T11:45:48;7.03;;;4.10;;
6209;SDS011;3138;52.550;13.148;2023-07-31T11:48:19;8.90;;;4.60;;
6209;SDS011;3138;52.550;13.148;2023-07-31T11:50:47;5.63;;;4.13;;
6209;SDS011;3138;52.550;13.148;2023-07-31T11:53:17;6.80;;;4.33;;
6209;SDS011;3138;52.550;13.148;2023-07-31T11:55:48;9.60;;;4.70;;
6209;SDS011;3138;52.550;13.148;2023-07-31T11:58:15;7.20;;;4.20;;
6209;SDS011;3138;52.550;13.148;2023-07-31T12:00:44;7.03;;;4.23;;
6209;SDS011;3138;52.550;13.148;2023-07-31T12:03:11;7.83;;;4.90;;
6209;SDS011;3138;52.550;13.148;2023-07-31T12:05:38;7.03;;;3.90;;
6209;SDS011;3138;52.550;13.148;2023-07-31T12:08:09;12.10;;;4.70;;
6209;SDS011;3138;52.550;13.148;2023-07-31T12:10:38;11.40;;;4.37;;
6209;SDS011;3138;52.550;13.148;2023-07-31T12:13:08;4.73;;;3.73;;
6209;SDS011;3138;52.550;13.148;2023-07-31T12:15:39;7.53;;;4.33;;
6209;SDS011;3138;52.550;13.148;2023-07-31T12:18:08;10.80;;;4.57;;
6209;SDS011;3138;52.550;13.148;2023-07-31T12:20:40;10.70;;;4.83;;
6209;SDS011;3138;52.550;13.148;2023-07-31T12:23:12;13.30;;;4.23;;
6209;SDS011;3138;52.550;13.148;2023-07-31T12:25:42;12.70;;;4.30;;
6209;SDS011;3138;52.550;13.148;2023-07-31T12:28:09;8.10;;;4.17;;
6209;SDS011;3138;52.550;13.148;2023-07-31T12:30:37;13.00;;;4.60;;
6209;SDS011;3138;52.550;13.148;2023-07-31T12:33:06;6.30;;;3.80;;
6209;SDS011;3138;52.550;13.148;2023-07-31T12:35:39;9.20;;;3.60;;
6209;SDS011;3138;52.550;13.148;2023-07-31T12:38:07;13.33;;;4.53;;
6209;SDS011;3138;52.550;13.148;2023-07-31T12:40:36;5.13;;;4.40;;
6209;SDS011;3138;52.550;13.148;2023-07-31T12:43:05;14.33;;;3.90;;
6209;SDS011;3138;52.550;13.148;2023-07-31T12:45:32;6.93;;;4.13;;
6209;SDS011;3138;52.550;13.148;2023-07-31T12:47:59;11.80;;;4.50;;
6209;SDS011;3138;52.550;13.148;2023-07-31T12:50:27;10.50;;;4.40;;
6209;SDS011;3138;52.550;13.148;2023-07-31T12:52:53;8.93;;;4.87;;
6209;SDS011;3138;52.550;13.148;2023-07-31T12:55:21;9.00;;;4.60;;
6209;SDS011;3138;52.550;13.148;2023-07-31T12:57:48;11.87;;;4.60;;
6209;SDS011;3138;52.550;13.148;2023-07-31T13:00:16;8.03;;;4.27;;
6209;SDS011;3138;52.550;13.148;2023-07-31T13:02:43;6.80;;;4.10;;
6209;SDS011;3138;52.550;13.148;2023-07-31T13:05:12;10.03;;;4.40;;
6209;SDS011;3138;52.550;13.148;2023-07-31T13:07:39;7.60;;;3.90;;
6209;SDS011;3138;52.550;13.148;2023-07-31T13:10:06;6.97;;;4.77;;
6209;SDS011;3138;52.550;13.148;2023-07-31T13:12:34;6.70;;;4.40;;
6209;SDS011;3138;52.550;13.148;2023-07-31T13:15:01;12.03;;;3.30;;
6209;SDS011;3138;52.550;13.148;2023-07-31T13:17:29;6.80;;;3.70;;
6209;SDS011;3138;52.550;13.148;2023-07-31T13:19:56;6.53;;;3.37;;
6209;SDS011;3138;52.550;13.148;2023-07-31T13:22:22;5.93;;;3.37;;
6209;SDS011;3138;52.550;13.148;2023-07-31T13:24:49;6.23;;;3.70;;
6209;SDS011;3138;52.550;13.148;2023-07-31T13:27:16;8.13;;;3.33;;
6209;SDS011;3138;52.550;13.148;2023-07-31T13:29:45;5.67;;;3.90;;
6209;SDS011;3138;52.550;13.148;2023-07-31T13:32:12;6.03;;;3.07;;
6209;SDS011;3138;52.550;13.148;2023-07-31T13:34:40;3.60;;;3.07;;
6209;SDS011;3138;52.550;13.148;2023-07-31T13:37:07;6.83;;;3.60;;
6209;SDS011;3138;52.550;13.148;2023-07-31T13:39:34;7.23;;;3.20;;
6209;SDS011;3138;52.550;13.148;2023-07-31T13:42:02;6.87;;;3.10;;
6209;SDS011;3138;52.550;13.148;2023-07-31T13:44:31;6.67;;;3.67;;
6209;SDS011;3138;52.550;13.148;2023-07-31T13:46:58;11.00;;;3.97;;
6209;SDS011;3138;52.550;13.148;2023-07-31T13:49:25;6.67;;;4.03;;
6209;SDS011;3138;52.550;13.148;2023-07-31T13:51:53;5.13;;;3.03;;
6209;SDS011;3138;52.550;13.148;2023-07-31T13:54:20;5.00;;;3.40;;
6209;SDS011;3138;52.550;13.148;2023-07-31T13:56:48;6.97;;;3.53;;
6209;SDS011;3138;52.550;13.148;2023-07-31T13:59:15;6.33;;;4.03;;
6209;SDS011;3138;52.550;13.148;2023-07-31T14:01:42;6.83;;;3.80;;
6209;SDS011;3138;52.550;13.148;2023-07-31T14:04:09;9.00;;;4.10;;
6209;SDS011;3138;52.550;13.148;2023-07-31T14:06:36;9.30;;;4.27;;
6209;SDS011;3138;52.550;13.148;2023-07-31T14:09:04;3.53;;;3.20;;
6209;SDS011;3138;52.550;13.148;2023-07-31T14:11:31;6.77;;;3.90;;
6209;SDS011;3138;52.550;13.148;2023-07-31T14:13:58;6.47;;;3.40;;
6209;SDS011;3138;52.550;13.148;2023-07-31T14:16:26;6.47;;;3.87;;
6209;SDS011;3138;52.550;13.148;2023-07-31T14:18:53;18.90;;;4.60;;
6209;SDS011;3138;52.550;13.148;2023-07-31T14:21:20;4.73;;;3.80;;
6209;SDS011;3138;52.550;13.148;2023-07-31T14:23:47;11.77;;;3.80;;
6209;SDS011;3138;52.550;13.148;2023-07-31T14:26:15;6.53;;;4.00;;
6209;SDS011;3138;52.550;13.148;2023-07-31T14:28:42;9.00;;;4.20;;
6209;SDS011;3138;52.550;13.148;2023-07-31T14:31:11;7.63;;;4.07;;
6209;SDS011;3138;52.550;13.148;2023-07-31T14:33:38;7.50;;;4.43;;
6209;SDS011;3138;52.550;13.148;2023-07-31T14:36:05;9.13;;;3.50;;
6209;SDS011;3138;52.550;13.148;2023-07-31T14:38:32;13.03;;;4.10;;
6209;SDS011;3138;52.550;13.148;2023-07-31T14:40:59;8.60;;;3.67;;
6209;SDS011;3138;52.550;13.148;2023-07-31T14:43:27;7.40;;;4.20;;
6209;SDS011;3138;52.550;13.148;2023-07-31T14:45:54;15.13;;;3.73;;
6209;SDS011;3138;52.550;13.148;2023-07-31T14:48:24;4.80;;;3.87;;
6209;SDS011;3138;52.550;13.148;2023-07-31T14:50:51;5.13;;;3.50;;
6209;SDS011;3138;52.550;13.148;2023-07-31T14:53:18;8.60;;;4.53;;
6209;SDS011;3138;52.550;13.148;2023-07-31T14:55:44;8.20;;;4.00;;
6209;SDS011;3138;52.550;13.148;2023-07-31T14:58:11;6.83;;;4.10;;
6209;SDS011;3138;52.550;13.148;2023-07-31T15:00:40;12.20;;;5.33;;
6209;SDS011;3138;52.550;13.148;2023-07-31T15:03:07;19.60;;;14.50;;